Time;durP1;ratioP1;P1;durP2;ratioP2;P2;SDS_P1;SDS_P2;PMS_P1;PMS_P2;Temp;Humidity;BMP_temperature;BMP_pressure;BME280_temperature;BME280_humidity;BME280_pressure;Samples;Min_cycle;Max_cycle;Signal;HPM_P1;HPM_P2
2023/10/13 00:02:04;;;;;;;5.60;1.27;;;;;;;12.90;100.00;98045.19;5035763;28;20159;-74
2023/10/13 00:04:35;;;;;;;4.97;0.98;;;;;;;13.09;100.00;98038.19;5068479;28;20443;-75
2023/10/13 00:07:02;;;;;;;;;;;;;;;13.26;99.69;98032.16;5020002;28;20037;-74
2023/10/13 00:09:37;;;;;;;5.38;1.08;;;;;;;13.12;99.25;98056.41;5019011;28;19929;-74
2023/10/13 00:12:13;;;;;;;6.38;1.10;;;;;;;13.14;98.77;98049.84;5004036;28;20117;-74
2023/10/13 00:14:41;;;;;;;5.60;0.95;;;;;;;12.92;98.53;98044.97;5052642;28;20144;-74
2023/10/13 00:17:08;;;;;;;4.28;1.65;;;;;;;13.01;98.08;98062.41;5035533;28;20048;-74
2023/10/13 00:19:46;;;;;;;2.83;0.93;;;;;;;13.09;97.99;98064.81;5035219;28;20052;-73
2023/10/13 00:22:15;;;;;;;2.25;0.95;;;;;;;12.91;97.97;98072.66;5020075;28;20055;-74
2023/10/13 00:24:43;;;;;;;3.90;1.30;;;;;;;13.05;97.16;98052.97;5035436;28;20375;-72
2023/10/13 00:32:53;;;;;;;5.07;1.27;;;;;;;12.75;97.29;98062.47;5054176;28;20396;-71
2023/10/13 00:35:25;;;;;;;7.38;1.00;;;;;;;12.85;96.51;98055.69;5051836;28;20040;-72
2023/10/13 00:37:56;;;;;;;5.38;1.10;;;;;;;12.97;96.56;98074.50;5036021;28;20049;-71
2023/10/13 00:43:29;;;;;;;5.40;1.20;;;;;;;12.83;95.92;98059.56;5035687;28;20040;-71
2023/10/13 00:46:07;;;;;;;2.70;1.00;;;;;;;12.72;96.60;98073.53;5020927;28;20114;-72
2023/10/13 00:48:54;;;;;;;2.47;0.70;;;;;;;12.92;96.47;98072.44;5037448;28;20445;-72
2023/10/13 00:51:34;;;;;;;2.72;0.88;;;;;;;12.73;96.03;98072.53;5021016;28;20049;-71
2023/10/13 00:54:07;;;;;;;3.78;1.00;;;;;;;12.85;95.67;98074.34;5037704;28;20047;-73
2023/10/13 00:56:34;;;;;;;6.22;0.90;;;;;;;12.76;95.95;98072.09;5035701;28;20044;-74
2023/10/13 00:59:02;;;;;;;4.47;1.00;;;;;;;12.59;96.86;98068.25;5034762;28;20099;-73
2023/10/13 01:01:32;;;;;;;5.03;1.17;;;;;;;12.74;96.97;98072.31;5051319;28;20045;-73
2023/10/13 01:03:59;;;;;;;9.25;1.17;;;;;;;12.45;97.65;98080.78;5035479;28;20052;-73
2023/10/13 01:06:29;;;;;;;7.10;1.30;;;;;;;12.77;97.80;98079.88;5051634;28;20041;-73
2023/10/13 01:09:10;;;;;;;3.20;1.00;;;;;;;12.84;97.80;98078.00;5034872;28;20135;-73
2023/10/13 01:11:42;;;;;;;3.92;1.20;;;;;;;12.76;98.39;98090.75;5002783;28;20049;-75
2023/10/13 01:14:11;;;;;;;4.55;0.95;;;;;;;12.71;97.60;98086.06;5051538;28;20045;-75
2023/10/13 01:16:40;;;;;;;5.85;1.40;;;;;;;13.03;97.58;98077.16;5034516;28;20071;-75
2023/10/13 01:19:06;;;;;;;7.28;1.35;;;;;;;12.78;96.83;98081.50;5034878;28;20052;-74
2023/10/13 01:21:33;;;;;;;2.95;1.10;;;;;;;12.86;96.57;98083.13;5034369;28;20051;-74
2023/10/13 01:24:01;;;;;;;7.72;1.10;;;;;;;12.54;99.21;98074.22;5034175;28;20049;-76
2023/10/13 01:26:27;;;;;;;7.65;1.45;;;;;;;12.57;98.58;98081.78;5034001;28;20128;-74
2023/10/13 01:28:59;;;;;;;2.88;1.15;;;;;;;12.77;98.64;98085.22;5017574;28;20133;-74
2023/10/13 01:31:27;;;;;;;7.45;1.50;;;;;;;12.67;97.71;98087.47;5017721;28;20033;-74
2023/10/13 01:33:54;;;;;;;4.00;1.00;;;;;;;12.70;97.91;98086.25;5033783;28;20044;-74
2023/10/13 01:36:21;;;;;;;3.35;1.10;;;;;;;12.54;98.51;98090.19;5066879;28;20041;-74
2023/10/13 01:38:49;;;;;;;7.97;1.33;;;;;;;12.83;97.51;98089.72;5017279;28;20052;-74
2023/10/13 01:41:16;;;;;;;10.13;1.50;;;;;;;12.69;98.20;98090.75;5049977;28;20060;-74
2023/10/13 01:43:42;;;;;;;2.95;1.10;;;;;;;12.56;97.37;98095.31;5017241;28;20067;-74
2023/10/13 01:46:10;;;;;;;4.88;1.25;;;;;;;12.75;98.73;98100.59;5066835;28;20045;-74
2023/10/13 01:48:40;;;;;;;5.60;1.33;;;;;;;12.29;99.11;98126.47;5018107;28;20063;-74
2023/10/13 01:51:09;;;;;;;5.53;1.60;;;;;;;12.46;99.68;98097.56;5034791;28;20051;-73
2023/10/13 01:53:37;;;;;;;4.72;1.20;;;;;;;12.58;99.65;98110.03;5017824;28;20052;-74
2023/10/13 01:56:11;;;;;;;5.57;1.20;;;;;;;12.73;98.90;98097.28;5017294;28;20037;-74
2023/10/13 01:58:41;;;;;;;6.90;1.80;;;;;;;12.60;98.65;98108.00;5035746;28;20139;-74
2023/10/13 02:01:07;;;;;;;3.97;1.35;;;;;;;12.46;98.84;98122.34;5034319;28;20095;-74
2023/10/13 02:03:33;;;;;;;5.03;1.27;;;;;;;12.51;99.44;98108.41;5017200;28;20118;-73
2023/10/13 02:06:04;;;;;;;7.90;1.30;;;;;;;12.53;98.65;98122.34;5050412;28;20045;-74
2023/10/13 02:08:32;;;;;;;6.53;2.10;;;;;;;12.44;98.57;98144.91;5050258;28;20044;-74
2023/10/13 02:11:01;;;;;;;7.55;1.40;;;;;;;12.64;98.49;98124.38;5050855;28;20435;-74
2023/10/13 02:13:29;;;;;;;4.18;1.10;;;;;;;12.52;98.26;98124.19;5050699;28;20056;-72
2023/10/13 02:15:57;;;;;;;6.53;2.05;;;;;;;12.72;98.27;98130.31;5018062;28;20037;-75
2023/10/13 02:18:28;;;;;;;8.73;1.83;;;;;;;12.67;97.60;98130.09;5050812;28;20060;-75
2023/10/13 02:20:56;;;;;;;12.00;1.60;;;;;;;12.15;99.07;98142.66;5034850;28;20047;-75
2023/10/13 02:23:32;;;;;;;14.20;1.65;;;;;;;12.27;99.81;98149.78;5050902;28;20048;-75
2023/10/13 02:26:03;;;;;;;8.93;1.23;;;;;;;12.60;99.15;98145.28;5034932;28;20063;-75
2023/10/13 02:28:33;;;;;;;10.60;1.25;;;;;;;12.64;97.04;98138.50;5050622;28;20378;-75
2023/10/13 02:31:03;;;;;;;5.55;1.25;;;;;;;12.60;98.14;98147.94;5034434;28;20500;-75
2023/10/13 02:33:45;;;;;;;4.03;1.20;;;;;;;12.44;97.08;98151.00;5050168;28;20486;-75
2023/10/13 02:36:22;;;;;;;5.50;1.65;;;;;;;12.33;97.12;98143.66;5033449;28;20075;-75
2023/10/13 02:38:50;;;;;;;5.43;1.50;;;;;;;12.34;98.78;98150.63;5035423;28;20121;-75
2023/10/13 02:41:28;;;;;;;6.70;1.40;;;;;;;12.63;97.33;98168.84;5016985;28;20049;-75
2023/10/13 02:43:55;;;;;;;7.95;1.40;;;;;;;12.65;96.78;98161.47;5049993;28;20045;-74
2023/10/13 02:46:25;;;;;;;4.13;1.20;;;;;;;12.60;96.66;98150.59;5033526;28;20056;-73
2023/10/13 02:48:55;;;;;;;8.30;1.30;;;;;;;12.63;96.34;98154.69;5066577;28;20088;-74
2023/10/13 02:51:36;;;;;;;11.10;1.37;;;;;;;12.78;95.45;98166.75;5050520;28;20106;-74
2023/10/13 02:54:39;;;;;;;4.75;1.17;;;;;;;12.55;95.30;98145.06;5053210;28;20291;-75
2023/10/13 02:56:58;;;;;;;6.38;1.60;;;;;;;12.73;95.63;98158.56;5052962;28;20053;-77
2023/10/13 02:59:40;;;;;;;5.53;1.52;;;;;;;12.55;96.03;98169.03;5037840;28;20077;-77
2023/10/13 03:02:17;;;;;;;5.63;1.33;;;;;;;12.71;95.53;98173.13;5022283;28;20482;-77
2023/10/13 03:04:46;;;;;;;6.80;1.40;;;;;;;12.69;96.11;98186.66;5053586;28;20099;-77
2023/10/13 03:07:15;;;;;;;5.85;1.30;;;;;;;12.70;95.11;98184.81;5053393;28;20060;-77
2023/10/13 03:09:50;;;;;;;4.07;1.25;;;;;;;12.48;95.84;98186.88;5037600;28;20167;-77
2023/10/13 03:12:19;;;;;;;8.32;1.40;;;;;;;12.73;95.45;98197.72;5037487;28;20040;-76
2023/10/13 03:14:49;;;;;;;8.87;1.60;;;;;;;12.71;94.17;98197.09;5037495;28;20140;-77
2023/10/13 03:17:19;;;;;;;13.38;1.75;;;;;;;12.48;95.32;98200.19;5054199;28;20056;-75
2023/10/13 03:19:49;;;;;;;7.33;1.60;;;;;;;12.58;94.96;98211.25;5037234;28;20052;-74
2023/10/13 03:22:16;;;;;;;4.40;1.42;;;;;;;12.42;95.17;98200.19;5036970;28;20147;-75
2023/10/13 03:24:47;;;;;;;5.47;1.10;;;;;;;12.64;95.02;98206.94;5052991;28;20037;-75
2023/10/13 03:27:16;;;;;;;5.53;1.52;;;;;;;12.55;94.25;98195.66;5015835;28;20056;-72
2023/10/13 03:29:43;;;;;;;10.60;1.60;;;;;;;12.47;94.95;98205.72;4999336;28;20499;-75
2023/10/13 03:32:14;;;;;;;8.57;1.52;;;;;;;12.61;94.90;98212.69;4966786;28;20049;-73
2023/10/13 03:37:38;;;;;;;5.63;1.30;;;;;;;12.72;93.81;98209.38;5017135;28;20096;-73
2023/10/13 03:43:04;;;;;;;8.68;1.80;;;;;;;12.41;93.55;98214.53;5000573;28;20053;-72
2023/10/13 03:45:39;;;;;;;14.55;1.65;;;;;;;12.86;92.86;98219.00;4984743;28;20041;-73
2023/10/13 03:48:11;;;;;;;6.53;1.50;;;;;;;12.32;93.56;98215.72;4982460;28;20053;-74
2023/10/13 03:50:48;;;;;;;7.05;1.73;;;;;;;12.80;92.72;98226.00;4967953;28;20044;-75
2023/10/13 03:53:14;;;;;;;7.68;1.83;;;;;;;12.67;91.75;98227.84;4986406;28;20054;-73
2023/10/13 03:55:47;;;;;;;9.25;1.50;;;;;;;12.58;92.48;98226.38;4979083;28;20362;-71
2023/10/13 03:58:18;;;;;;;8.20;1.63;;;;;;;12.51;91.61;98239.72;4990505;28;20040;-73
2023/10/13 04:00:54;;;;;;;6.50;1.48;;;;;;;12.45;91.59;98232.56;5000672;28;20224;-72
2023/10/13 04:03:32;;;;;;;5.32;1.38;;;;;;;12.44;90.91;98238.09;4981819;28;20053;-72
2023/10/13 04:06:06;;;;;;;8.77;1.95;;;;;;;12.06;92.01;98259.09;4976610;28;20058;-73
2023/10/13 04:08:48;;;;;;;9.93;1.73;;;;;;;12.35;92.12;98247.25;4978452;28;20348;-74
2023/10/13 04:16:54;;;;;;;6.15;1.55;;;;;;;12.25;92.04;98286.78;4996290;28;20045;-77
2023/10/13 04:19:23;;;;;;;7.90;2.25;;;;;;;12.56;91.11;98279.06;4994744;28;20054;-73
2023/10/13 04:21:59;;;;;;;8.50;1.40;;;;;;;12.25;92.60;98284.13;4978929;28;20384;-73
2023/10/13 04:25:00;;;;;;;9.57;1.55;;;;;;;12.13;92.71;98286.53;4994538;28;20397;-72
2023/10/13 04:27:53;;;;;;;8.60;1.55;;;;;;;12.11;93.17;98296.56;5010477;28;20052;-72
2023/10/13 04:30:38;;;;;;;6.60;1.38;;;;;;;12.40;92.28;98280.25;5000366;28;20162;-74
2023/10/13 04:33:35;;;;;;;6.22;1.50;;;;;;;12.31;91.85;98286.78;5014176;28;20961;-72
2023/10/13 04:35:58;;;;;;;8.13;2.28;;;;;;;12.28;92.24;98297.03;4984321;28;20033;-73
2023/10/13 04:38:33;;;;;;;10.88;1.98;;;;;;;12.31;92.24;98294.78;5023697;28;20057;-72
2023/10/13 04:41:01;;;;;;;9.13;1.65;;;;;;;12.11;92.65;98301.91;5016104;28;20463;-72
2023/10/13 04:43:33;;;;;;;10.45;1.65;;;;;;;12.45;91.69;98292.97;5014762;28;20045;-72
2023/10/13 04:46:14;;;;;;;5.95;1.80;;;;;;;12.43;91.41;98301.16;4983585;28;20103;-72
2023/10/13 04:48:46;;;;;;;6.55;1.67;;;;;;;12.38;91.30;98311.59;5031468;28;20045;-71
2023/10/13 04:52:26;;;;;;;11.07;2.33;;;;;;;12.27;91.67;98306.84;4978959;28;20108;-73
2023/10/13 04:54:19;;;;;;;9.18;2.08;;;;;;;12.46;91.40;98332.69;4957116;28;20056;-71
2023/10/13 04:57:22;;;;;;;12.10;3.38;;;;;;;12.70;90.30;98334.00;4963458;28;20156;-72
2023/10/13 06:29:53;;;;;;;4.70;1.23;;;;;;;14.15;75.07;98465.25;5016488;28;20095;-70
2023/10/13 06:32:20;;;;;;;6.75;1.58;;;;;;;14.35;75.88;98483.91;4983729;28;20061;-72
2023/10/13 06:34:47;;;;;;;9.18;2.00;;;;;;;14.54;75.13;98489.22;4999831;28;20049;-70
2023/10/13 06:37:32;;;;;;;3.20;1.40;;;;;;;14.37;74.13;98495.22;5016373;28;20049;-70
2023/10/13 06:40:25;;;;;;;10.57;2.13;;;;;;;15.00;73.70;98489.00;5016176;28;20261;-70
2023/10/13 06:42:55;;;;;;;10.23;2.35;;;;;;;15.48;71.53;98500.06;4985969;28;20049;-77
2023/10/13 06:45:21;;;;;;;7.55;2.30;;;;;;;15.52;70.09;98507.44;4983790;28;20499;-72
2023/10/13 06:47:53;;;;;;;6.97;1.83;;;;;;;15.76;68.83;98495.91;5008819;28;20111;-72
2023/10/13 06:50:24;;;;;;;5.25;1.38;;;;;;;15.60;67.28;98490.28;4997534;28;20049;-72
2023/10/13 06:52:54;;;;;;;5.32;1.48;;;;;;;15.70;67.64;98512.84;4961873;28;20046;-73
2023/10/13 06:55:27;;;;;;;8.48;1.50;;;;;;;15.61;67.50;98514.16;4945270;28;20088;-72
2023/10/13 06:57:59;;;;;;;9.10;1.38;;;;;;;15.52;67.50;98531.50;4993261;28;20054;-73
2023/10/13 07:00:38;;;;;;;3.47;1.20;;;;;;;15.66;69.00;98534.91;4929611;28;20066;-72
2023/10/13 07:03:18;;;;;;;10.45;1.30;;;;;;;15.67;69.48;98528.53;4960152;28;20492;-73
2023/10/13 07:05:50;;;;;;;8.25;1.30;;;;;;;15.60;69.05;98533.94;4977145;28;20159;-73
2023/10/13 07:08:21;;;;;;;12.15;1.50;;;;;;;15.60;68.83;98547.31;4960943;28;20136;-71
2023/10/13 07:10:51;;;;;;;8.07;1.83;;;;;;;15.59;69.45;98540.31;4977403;28;20064;-72
2023/10/13 07:13:17;;;;;;;9.05;1.67;;;;;;;16.12;68.75;98551.44;4960344;28;20058;-71
2023/10/13 07:15:45;;;;;;;11.77;1.30;;;;;;;16.51;66.58;98557.25;4960606;28;20122;-70
2023/10/13 07:18:13;;;;;;;6.82;1.33;;;;;;;16.72;65.28;98554.16;4976493;28;20050;-71
2023/10/13 07:20:46;;;;;;;3.47;1.42;;;;;;;16.91;64.10;98557.66;4941122;28;20057;-70
2023/10/13 07:23:19;;;;;;;7.43;1.40;;;;;;;16.70;64.04;98569.66;4962738;28;20176;-72
2023/10/13 07:26:15;;;;;;;8.10;1.85;;;;;;;16.92;63.84;98567.34;4968046;28;20045;-70
2023/10/13 07:28:43;;;;;;;5.30;1.42;;;;;;;17.25;62.17;98585.72;4969765;28;20452;-69
2023/10/13 07:31:20;;;;;;;3.83;1.13;;;;;;;17.31;60.94;98584.81;4983140;28;20501;-70
2023/10/13 07:33:47;;;;;;;3.92;1.25;;;;;;;18.10;57.32;98579.94;5015197;28;20143;-71
2023/10/13 07:36:18;;;;;;;4.88;1.38;;;;;;;19.98;53.29;98588.88;4982754;28;20448;-71
2023/10/13 07:39:10;;;;;;;4.18;1.50;;;;;;;23.35;45.73;98593.44;4982670;28;20140;-71
2023/10/13 07:41:36;;;;;;;3.67;1.65;;;;;;;26.37;35.21;98594.50;4998690;28;20148;-72
2023/10/13 07:44:04;;;;;;;3.70;1.40;;;;;;;26.66;31.56;98600.03;4998901;28;20140;-72
2023/10/13 07:46:32;;;;;;;2.53;1.30;;;;;;;25.21;31.02;98593.53;4998985;28;20344;-71
2023/10/13 07:49:11;;;;;;;4.32;1.52;;;;;;;25.10;31.27;98600.06;5015781;28;20407;-72
2023/10/13 07:51:49;;;;;;;5.30;1.40;;;;;;;23.65;31.61;98571.03;4990981;28;20049;-72
2023/10/13 07:54:21;;;;;;;6.47;1.40;;;;;;;21.94;33.60;98601.59;5002730;28;20060;-73
2023/10/13 07:56:48;;;;;;;5.38;1.40;;;;;;;21.41;34.68;98597.78;5016167;28;20567;-73
2023/10/13 07:59:22;;;;;;;2.38;1.08;;;;;;;21.50;34.03;98600.84;4999848;28;20114;-73
2023/10/13 08:02:06;;;;;;;3.92;1.23;;;;;;;23.48;31.59;98611.09;5032351;28;20081;-72
2023/10/13 08:04:35;;;;;;;4.80;1.10;;;;;;;23.22;31.53;98602.84;5018448;28;20081;-71
2023/10/13 08:07:13;;;;;;;4.93;1.50;;;;;;;23.18;31.97;98606.34;5000090;28;20037;-71
2023/10/13 08:09:41;;;;;;;4.25;1.70;;;;;;;22.48;32.50;98617.50;4986535;28;20506;-71
2023/10/13 08:12:11;;;;;;;3.78;1.50;;;;;;;24.43;30.35;98619.44;5015460;28;20045;-71
2023/10/13 08:14:40;;;;;;;5.15;1.90;;;;;;;27.45;26.74;98611.16;5031925;28;20108;-72
2023/10/13 08:17:09;;;;;;;3.38;1.25;;;;;;;30.22;22.90;98614.22;4983388;28;20038;-72
2023/10/13 08:19:44;;;;;;;5.27;1.60;;;;;;;32.34;20.41;98620.94;5031996;28;20053;-72
2023/10/13 08:37:35;;;;;;;3.72;1.63;;;;;;;32.74;17.43;98669.13;5031397;28;20052;-72
2023/10/13 08:45:53;;;;;;;2.95;1.20;;;;;;;30.31;17.49;98669.88;5015345;28;20148;-72
2023/10/13 08:53:27;;;;;;;2.53;0.98;;;;;;;32.47;16.75;98662.03;5016568;28;20045;-71
2023/10/13 08:56:14;;;;;;;4.93;1.30;;;;;;;34.30;15.15;98691.88;5016740;28;20491;-73
2023/10/13 09:04:26;;;;;;;2.25;1.20;;;;;;;33.93;15.00;98681.75;5017462;28;20065;-72
2023/10/13 09:12:19;;;;;;;1.90;0.93;;;;;;;33.92;14.08;98705.72;5030950;28;20045;-72
2023/10/13 09:14:58;;;;;;;2.40;0.98;;;;;;;35.29;13.37;98699.13;5014469;28;20063;-72
2023/10/13 09:17:34;;;;;;;3.13;0.88;;;;;;;36.19;12.47;98708.06;5014477;28;20041;-70
2023/10/13 09:25:35;;;;;;;1.95;0.82;;;;;;;34.52;13.18;98705.34;5030986;28;20041;-72
2023/10/13 09:28:22;;;;;;;8.15;1.55;;;;;;;32.93;14.19;98699.88;5014993;28;20052;-78
2023/10/13 09:30:58;;;;;;;2.38;1.10;;;;;;;30.90;15.40;98716.19;4997965;28;20052;-77
2023/10/13 09:33:35;;;;;;;3.97;1.00;;;;;;;30.40;16.39;98703.63;5013126;28;20080;-77
2023/10/13 09:36:07;;;;;;;5.47;1.35;;;;;;;30.46;16.75;98702.41;5013263;28;20045;-77
2023/10/13 09:38:36;;;;;;;3.85;1.10;;;;;;;30.18;16.78;98694.53;5014434;28;20037;-77
2023/10/13 09:41:17;;;;;;;3.15;1.30;;;;;;;30.40;16.52;98708.31;4995927;28;20084;-78
2023/10/13 09:43:45;;;;;;;7.22;1.52;;;;;;;30.52;16.31;98722.28;4997693;28;20132;-77
2023/10/13 09:46:18;;;;;;;2.97;1.83;;;;;;;31.78;15.87;98720.72;4996536;28;20047;-77
2023/10/13 09:48:46;;;;;;;3.03;1.40;;;;;;;32.08;15.43;98732.75;4964408;28;20045;-77
2023/10/13 09:51:14;;;;;;;4.00;1.02;;;;;;;29.94;16.29;98738.59;4980955;28;20052;-77
2023/10/13 09:53:49;;;;;;;2.83;1.20;;;;;;;29.06;17.86;98738.06;4964342;28;20442;-77
2023/10/13 09:56:26;;;;;;;3.35;0.95;;;;;;;28.83;18.01;98741.69;4958170;28;20057;-77
2023/10/13 09:58:57;;;;;;;6.03;1.55;;;;;;;26.87;19.12;98743.13;4958143;28;20133;-77
2023/10/13 10:01:33;;;;;;;2.65;0.98;;;;;;;25.81;20.63;98753.78;4942315;28;20078;-77
2023/10/13 10:04:29;;;;;;;2.53;1.00;;;;;;;24.99;21.82;98745.22;4978246;28;20153;-76
2023/10/13 10:06:57;;;;;;;4.93;1.15;;;;;;;25.99;21.15;98748.56;4946175;28;20392;-76
2023/10/13 10:09:43;;;;;;;4.88;1.10;;;;;;;26.78;20.36;98758.47;4961789;28;20580;-77
2023/10/13 10:13:06;;;;;;;2.50;1.10;;;;;;;27.87;19.33;98747.66;4972563;28;20054;-77
2023/10/13 10:15:43;;;;;;;2.38;1.10;;;;;;;28.79;18.55;98755.13;4936798;28;20050;-77
2023/10/13 10:18:25;;;;;;;2.53;1.20;;;;;;;28.51;18.40;98763.50;4965212;28;20038;-77
2023/10/13 10:20:52;;;;;;;8.23;1.60;;;;;;;29.51;17.78;98759.13;4996830;28;20072;-77
2023/10/13 10:23:43;;;;;;;2.67;1.10;;;;;;;29.12;17.70;98765.00;4964898;28;20034;-77
2023/10/13 10:26:25;;;;;;;4.88;1.10;;;;;;;30.04;17.53;98768.53;4982444;28;20132;-77
2023/10/13 10:28:51;;;;;;;1.88;1.00;;;;;;;29.17;17.41;98772.31;5019475;28;20095;-77
2023/10/13 10:31:19;;;;;;;3.83;1.13;;;;;;;27.19;18.80;98778.84;4985293;28;20498;-77
2023/10/13 10:33:52;;;;;;;2.97;1.20;;;;;;;27.26;19.03;98771.19;5002519;28;20050;-77
2023/10/13 10:36:31;;;;;;;4.80;1.30;;;;;;;26.76;19.54;98782.47;4986177;28;20155;-77
2023/10/13 10:38:59;;;;;;;2.40;1.30;;;;;;;27.01;19.01;98787.72;5001351;28;20467;-77
2023/10/13 10:45:05;;;;;;;1.98;0.88;;;;;;;25.91;20.43;98779.03;5019770;28;20049;-77
2023/10/13 10:47:19;;;;;;;2.63;1.15;;;;;;;24.80;21.56;98786.47;5004233;28;20064;-78
2023/10/13 10:49:47;;;;;;;5.78;1.33;;;;;;;24.52;22.18;98792.41;5018578;28;20064;-77
2023/10/13 10:52:20;;;;;;;1.80;1.02;;;;;;;24.03;23.03;98788.41;5001901;28;20132;-77
2023/10/13 10:54:51;;;;;;;3.90;1.30;;;;;;;24.11;23.09;98811.53;4985908;28;20086;-77
2023/10/13 10:57:17;;;;;;;2.88;0.85;;;;;;;23.45;23.47;98812.19;5018496;28;20041;-77
2023/10/13 10:59:44;;;;;;;2.25;1.02;;;;;;;23.06;23.95;98817.81;5017305;28;20056;-77
2023/10/13 11:02:15;;;;;;;3.15;1.35;;;;;;;23.57;23.89;98813.63;4984612;28;20559;-77
2023/10/13 11:04:50;;;;;;;3.92;0.98;;;;;;;23.72;23.28;98827.28;5033476;28;20463;-78
2023/10/13 11:07:24;;;;;;;4.28;1.23;;;;;;;23.66;23.51;98819.38;4985958;28;20108;-77
2023/10/13 11:09:52;;;;;;;6.25;1.35;;;;;;;24.62;22.92;98816.84;4984481;28;20052;-77
2023/10/13 11:12:26;;;;;;;6.93;2.13;;;;;;;26.10;21.27;98828.25;4984877;28;20041;-77
2023/10/13 11:15:22;;;;;;;3.05;1.40;;;;;;;-141.23;100.00;62281.09;5016905;28;20080;-77
2023/10/13 11:17:54;;;;;;;2.58;1.23;;;;;;;-141.23;100.00;62281.09;4985981;28;20037;-77
2023/10/13 11:20:54;;;;;;;4.25;0.90;;;;;;;-141.23;100.00;62281.09;4984814;28;20095;-77
2023/10/13 11:23:13;;;;;;;4.45;1.08;;;;;;;-141.23;100.00;62281.09;5003552;28;20442;-78
2023/10/13 11:25:39;;;;;;;2.90;1.00;;;;;;;-141.23;100.00;62281.09;4984434;28;20049;-76
2023/10/13 11:28:20;;;;;;;4.78;1.20;;;;;;;-141.23;100.00;62281.09;5001447;28;20045;-76
2023/10/13 11:30:49;;;;;;;1.90;1.10;;;;;;;-141.23;100.00;62281.09;5016784;28;20041;-77
2023/10/13 11:33:18;;;;;;;4.83;0.90;;;;;;;-141.23;100.00;62281.09;4984880;28;20079;-76
2023/10/13 11:38:36;;;;;;;1.70;0.90;;;;;;;-141.23;100.00;62281.09;5017584;28;20052;-77
2023/10/13 11:41:14;;;;;;;1.35;0.80;;;;;;;-141.23;100.00;62281.09;5001917;28;20041;-77
2023/10/13 11:48:43;;;;;;;2.95;1.10;;;;;;;-141.23;100.00;62281.09;5016173;28;20053;-77
2023/10/13 11:51:17;;;;;;;2.83;1.13;;;;;;;-141.23;100.00;62281.09;5016239;28;20080;-76
2023/10/13 11:53:45;;;;;;;7.50;1.30;;;;;;;-141.23;100.00;62281.09;4984524;28;20049;-77
2023/10/13 11:56:12;;;;;;;2.40;1.10;;;;;;;-141.23;100.00;62281.09;4999232;28;20451;-77
2023/10/13 11:58:41;;;;;;;2.70;0.80;;;;;;;-141.23;100.00;62281.09;5016279;28;20107;-77
2023/10/13 12:09:19;;;;;;;3.05;0.95;;;;;;;-141.23;100.00;62281.09;5016279;28;20099;-78
2023/10/13 12:11:47;;;;;;;3.70;1.02;;;;;;;-141.23;100.00;62281.09;5018777;28;20045;-78
2023/10/13 12:14:21;;;;;;;3.10;0.93;;;;;;;-141.23;100.00;62281.09;5015392;28;20083;-77
2023/10/13 12:16:51;;;;;;;2.60;0.85;;;;;;;-141.23;100.00;62281.09;5032498;28;20063;-77
2023/10/13 12:19:24;;;;;;;6.53;1.05;;;;;;;-141.23;100.00;62281.09;5016086;28;20103;-79
2023/10/13 12:22:05;;;;;;;4.38;1.10;;;;;;;-141.23;100.00;62281.09;4997495;28;20133;-79
2023/10/13 12:27:23;;;;;;;2.13;1.13;;;;;;;-141.23;100.00;62281.09;4995333;28;20050;-77
2023/10/13 12:29:56;;;;;;;11.60;1.20;;;;;;;-141.23;100.00;62281.09;4978496;28;20092;-79
2023/10/13 12:32:30;;;;;;;6.10;1.10;;;;;;;-141.23;100.00;62281.09;4995531;28;20061;-79
2023/10/13 12:51:20;;;;;;;5.22;1.40;;;;;;;-141.23;100.00;62281.09;4991432;28;20069;-78
2023/10/13 12:53:50;;;;;;;8.13;1.50;;;;;;;-141.23;100.00;62281.09;5004929;28;20056;-77
2023/10/13 12:56:17;;;;;;;3.67;1.48;;;;;;;-141.23;100.00;62281.09;4985671;28;20083;-78
2023/10/13 12:58:51;;;;;;;5.32;1.15;;;;;;;-141.23;100.00;62281.09;5018163;28;20048;-76
2023/10/13 13:01:22;;;;;;;12.20;1.45;;;;;;;-141.23;100.00;62281.09;4999161;28;20057;-78
2023/10/13 13:03:49;;;;;;;2.80;1.30;;;;;;;-141.23;100.00;62281.09;5015586;28;20487;-78
2023/10/13 13:06:24;;;;;;;4.47;1.40;;;;;;;-141.23;100.00;62281.09;4982469;28;20057;-78
2023/10/13 13:08:55;;;;;;;5.20;1.27;;;;;;;-141.23;100.00;62281.09;4999942;28;20041;-79
2023/10/13 13:11:21;;;;;;;5.22;1.38;;;;;;;-141.23;100.00;62281.09;4998540;28;20045;-80
2023/10/13 13:13:47;;;;;;;5.38;1.30;;;;;;;-141.23;100.00;62281.09;5034132;28;20052;-78
2023/10/13 13:16:18;;;;;;;9.60;1.48;;;;;;;-141.23;100.00;62281.09;5025528;28;20053;-76
2023/10/13 13:18:45;;;;;;;4.32;1.42;;;;;;;-141.23;100.00;62281.09;5029009;28;20041;-76
2023/10/13 13:21:19;;;;;;;10.85;1.60;;;;;;;-141.23;100.00;62281.09;5033752;28;20045;-78
2023/10/13 13:23:46;;;;;;;4.18;1.80;;;;;;;-141.23;100.00;62281.09;5012794;28;20135;-78
2023/10/13 13:26:18;;;;;;;6.75;1.73;;;;;;;-141.23;100.00;62281.09;5008662;28;20053;-80
2023/10/13 13:28:45;;;;;;;4.07;1.70;;;;;;;-141.23;100.00;62281.09;5017439;28;20090;-77
2023/10/13 13:31:12;;;;;;;8.55;2.05;;;;;;;-141.23;100.00;62281.09;4982716;28;20044;-79
2023/10/13 13:33:43;;;;;;;9.50;2.63;;;;;;;-141.23;100.00;62281.09;5015265;28;20087;-79
2023/10/13 13:36:19;;;;;;;8.95;1.50;;;;;;;-141.23;100.00;62281.09;4998932;28;20124;-79
2023/10/13 13:38:46;;;;;;;6.20;1.70;;;;;;;-141.23;100.00;62281.09;5000315;28;20501;-76
2023/10/13 13:41:16;;;;;;;3.47;1.15;;;;;;;-141.23;100.00;62281.09;4977755;28;20092;-79
2023/10/13 13:46:17;;;;;;;5.18;1.13;;;;;;;-141.23;100.00;62281.09;4994648;28;20127;-79
2023/10/13 13:48:47;;;;;;;4.97;1.20;;;;;;;-141.23;100.00;62281.09;4961803;28;20547;-78
2023/10/13 13:51:19;;;;;;;5.60;1.38;;;;;;;-141.23;100.00;62281.09;4962383;28;20053;-79
2023/10/13 13:53:47;;;;;;;3.97;1.48;;;;;;;-141.23;100.00;62281.09;4961922;28;20452;-79
2023/10/13 13:56:16;;;;;;;4.22;1.70;;;;;;;-141.23;100.00;62281.09;4993889;28;20093;-80
2023/10/13 13:58:43;;;;;;;5.35;2.20;;;;;;;-141.23;100.00;62281.09;5010184;28;20056;-79
2023/10/13 14:01:21;;;;;;;8.98;2.17;;;;;;;-141.23;100.00;62281.09;4977160;28;20064;-79
2023/10/13 14:03:50;;;;;;;7.07;2.15;;;;;;;-141.23;100.00;62281.09;4995112;28;20136;-76
2023/10/13 14:06:24;;;;;;;8.82;1.80;;;;;;;-141.23;100.00;62281.09;4993451;28;20507;-79
2023/10/13 14:08:54;;;;;;;9.00;2.13;;;;;;;-141.23;100.00;62281.09;5009404;28;20111;-78
2023/10/13 14:16:51;;;;;;;6.10;1.80;;;;;;;-141.23;100.00;62281.09;5030910;28;20444;-78
2023/10/13 14:19:27;;;;;;;7.05;1.90;;;;;;;-141.23;100.00;62281.09;5015084;28;20227;-75
2023/10/13 14:21:53;;;;;;;5.65;2.20;;;;;;;-141.23;100.00;62281.09;5016306;28;20060;-78
2023/10/13 14:24:27;;;;;;;8.40;1.80;;;;;;;-141.23;100.00;62281.09;5031980;28;20049;-77
2023/10/13 14:27:02;;;;;;;10.65;2.90;;;;;;;-141.23;100.00;62281.09;5032642;28;20033;-79
2023/10/13 14:29:28;;;;;;;9.00;2.35;;;;;;;-141.23;100.00;62281.09;5014274;28;20381;-79
2023/10/13 14:31:53;;;;;;;5.88;2.03;;;;;;;-141.23;100.00;62281.09;5030642;28;20056;-78
2023/10/13 14:34:21;;;;;;;3.75;1.73;;;;;;;-141.23;100.00;62281.09;5030627;28;20072;-76
2023/10/13 14:36:51;;;;;;;5.88;1.85;;;;;;;-141.23;100.00;62281.09;5030802;28;20100;-79
2023/10/13 14:39:20;;;;;;;3.00;1.38;;;;;;;-141.23;100.00;62281.09;4982512;28;20053;-79
2023/10/13 14:41:49;;;;;;;9.40;2.50;;;;;;;-141.23;100.00;62281.09;5014558;28;20053;-79
2023/10/13 14:44:15;;;;;;;12.13;2.10;;;;;;;-141.23;100.00;62281.09;5030709;28;20055;-79
2023/10/13 14:46:41;;;;;;;10.88;2.38;;;;;;;-141.23;100.00;62281.09;4998262;28;20128;-78
2023/10/13 14:49:07;;;;;;;8.88;2.63;;;;;;;-141.23;100.00;62281.09;5031923;28;20489;-78
2023/10/13 14:51:33;;;;;;;10.23;2.35;;;;;;;-141.23;100.00;62281.09;5001673;28;20038;-78
2023/10/13 14:53:59;;;;;;;4.57;1.52;;;;;;;-141.23;100.00;62281.09;5001510;28;20042;-77
2023/10/13 14:56:26;;;;;;;6.97;1.90;;;;;;;-141.23;100.00;62281.09;5034986;28;20171;-78
2023/10/13 14:58:53;;;;;;;9.35;1.55;;;;;;;-141.23;100.00;62281.09;5023335;28;20052;-74
2023/10/13 15:01:21;;;;;;;6.28;1.83;;;;;;;-141.23;100.00;62281.09;5044051;28;20052;-75
2023/10/13 15:03:48;;;;;;;6.50;2.20;;;;;;;-141.23;100.00;62281.09;5001804;28;20029;-78
2023/10/13 15:06:25;;;;;;;6.22;2.00;;;;;;;-141.23;100.00;62281.09;5010434;28;20416;-78
2023/10/13 15:08:55;;;;;;;10.43;2.75;;;;;;;-141.23;100.00;62281.09;5042250;28;20415;-77
2023/10/13 15:11:26;;;;;;;;;;;;;;;-141.23;100.00;62281.09;5002081;28;20037;-78